Montour, IA (50173)

5:06 PM CST on February 14, 2016 (GMT -0600)
Grinnell Weather.com | | Change Station
CLOSE
Current Station
Personal Weather Station
Location: Grinnell, IA
Elevation: 1014 ft
Nearby Weather Stations

Elev 1014 ft 41.75 °N, 92.70 °W | Updated 2 seconds ago

Overcast
Overcast
19.4 °F
Feels Like 10 °F
N
7.7
Wind Variable Wind from South
Gusts 13.8 mph

Today
High -- | Low -- °F
--% Chance of Precip.
Yesterday
High -- | Low -- °F
Precip. -- in
Pressure 29.95 in
Visibility 10.0 miles
Clouds Overcast 1200 ft
Windchill 10 °F
Dew Point 19 °F
Humidity 100%
Rainfall 0.00 in
Snow Depth Not available.
7:08 AM 5:42 PM
Waxing Crescent, 46% visible
METAR KMIW 142253Z AUTO 13009KT 10SM OVC012 M07/M09 A2990 RMK AO2 SLP142 T10671094
Pressure 29.95 in
Visibility 10.0 miles
Clouds Overcast 1200 ft
Windchill 10 °F
Dew Point 19 °F
Humidity 100%
Rainfall 0.00 in
Snow Depth Not available.
7:08 AM 5:42 PM
Waxing Crescent, 46% visible
METAR KMIW 142253Z AUTO 13009KT 10SM OVC012 M07/M09 A2990 RMK AO2 SLP142 T10671094

10-Day Weather Forecast

Almanac

Astronomy

Feb. 14, 2016 Rise Set
Actual Time
Civil Twilight
Nautical Twilight
Astronomical Twilight
Moon
Length of Visible Light
Length of Day
Tomorrow will be .
, % of the Moon is Illuminated

Today's Extremes

State Highs State Lows

Community

WunderPhotos

Upload Photos

1,892,909 photos uploaded!

WunderBlog® & News

Nearby

Air Quality

  Air Quality AQ Index Pollutant
Not available.

Snow Depth

Station Depth Elevation

Earthquake Activity

City Distance Mag. Time & Date
Minimum magnitude displayed is 2.5.

Coastal Water Temperatures

Place Temperature

Stations

Nearby Weather Stations

Station Location Temp. Windchill Dew Point Humidity Wind Precip. Elev Updated Type
                   

Watches & Warnings

There are currently no watches in effect.